createdAt,value
2019-03-21T00:00:58.385Z,-1.10
2019-03-21T00:03:26.223Z,-1.10
2019-03-21T00:05:53.960Z,-1.10
2019-03-21T00:08:21.945Z,-1.10
2019-03-21T00:11:26.046Z,-1.20
2019-03-21T00:14:06.382Z,-1.20
2019-03-21T00:16:25.539Z,-1.30
2019-03-21T00:18:53.554Z,-1.30
2019-03-21T00:21:21.510Z,-1.30
2019-03-21T00:23:49.468Z,-1.30
2019-03-21T00:26:17.332Z,-1.40
2019-03-21T00:28:45.093Z,-1.30
2019-03-21T00:31:13.286Z,-1.10
2019-03-21T00:33:41.111Z,-1.20
2019-03-21T00:36:08.966Z,-1.20
2019-03-21T00:38:36.931Z,-1.20
2019-03-21T00:41:04.716Z,-1.30
2019-03-21T00:43:32.597Z,-1.30
2019-03-21T00:46:00.460Z,-1.30
2019-03-21T00:48:28.377Z,-1.40
2019-03-21T00:50:56.223Z,-1.50
2019-03-21T00:53:23.968Z,-1.50
2019-03-21T00:55:52.188Z,-1.30
2019-03-21T00:58:20.172Z,-1.10
2019-03-21T01:00:50.548Z,-0.90
2019-03-21T01:03:18.423Z,-0.70
2019-03-21T01:05:46.260Z,-0.70
2019-03-21T01:08:14.244Z,-0.60
2019-03-21T01:10:42.110Z,-0.70
2019-03-21T01:13:10.007Z,-0.70
2019-03-21T01:15:37.979Z,-0.70
2019-03-21T01:18:05.828Z,-0.70
2019-03-21T01:20:33.821Z,-0.70
2019-03-21T01:23:01.695Z,-0.70
2019-03-21T01:25:32.871Z,-0.60
2019-03-21T01:28:00.618Z,-0.50
2019-03-21T01:30:28.801Z,-0.60
2019-03-21T01:32:56.756Z,-0.60
2019-03-21T01:35:26.437Z,-0.70
2019-03-21T01:37:54.340Z,-0.60
2019-03-21T01:40:23.270Z,-0.50
2019-03-21T01:42:51.220Z,-0.30
2019-03-21T01:45:20.417Z,-0.20
2019-03-21T01:47:48.319Z,-0.10
2019-03-21T01:50:17.081Z,-0.10
2019-03-21T01:52:44.935Z,-0.20
2019-03-21T01:55:13.164Z,-0.10
2019-03-21T01:57:41.156Z,-0.10
2019-03-21T02:00:12.661Z,0.00
2019-03-21T02:02:40.709Z,0.00
2019-03-21T02:05:09.891Z,-0.10
2019-03-21T02:07:37.769Z,0.00
2019-03-21T02:10:08.335Z,-0.10
2019-03-21T02:12:36.115Z,0.00
2019-03-21T02:15:04.504Z,0.00
2019-03-21T02:17:32.397Z,0.10
2019-03-21T02:20:00.554Z,0.20
2019-03-21T02:22:28.395Z,0.40
2019-03-21T02:24:56.286Z,0.50
2019-03-21T02:27:24.141Z,0.80
2019-03-21T02:29:52.110Z,1.00
2019-03-21T02:32:20.056Z,1.30
2019-03-21T02:34:48.235Z,1.60
2019-03-21T02:37:15.996Z,1.80
2019-03-21T02:39:58.201Z,2.00
2019-03-21T02:42:13.594Z,2.20
2019-03-21T02:44:41.403Z,2.30
2019-03-21T02:47:09.327Z,2.40
2019-03-21T02:49:37.105Z,2.50
2019-03-21T02:52:05.017Z,2.60
2019-03-21T02:54:32.760Z,2.70
2019-03-21T02:57:00.819Z,2.80
2019-03-21T02:59:28.578Z,2.70
2019-03-21T03:01:56.653Z,2.70
2019-03-21T03:04:24.423Z,2.70
2019-03-21T03:06:52.486Z,2.60
2019-03-21T03:09:21.287Z,2.60
2019-03-21T03:11:49.470Z,2.60
2019-03-21T03:14:17.215Z,2.70
2019-03-21T03:16:45.129Z,2.70
2019-03-21T03:19:12.983Z,2.90
2019-03-21T03:21:40.856Z,3.00
2019-03-21T03:24:08.944Z,3.10
2019-03-21T03:26:36.828Z,3.30
2019-03-21T03:29:04.709Z,3.50
2019-03-21T03:31:32.604Z,3.60
2019-03-21T03:34:00.323Z,3.70
2019-03-21T03:36:28.339Z,3.80
2019-03-21T03:38:56.293Z,3.90
2019-03-21T03:41:24.168Z,4.20
2019-03-21T03:43:52.279Z,4.30
2019-03-21T03:46:20.201Z,4.40
2019-03-21T03:48:48.142Z,4.40
2019-03-21T03:51:15.877Z,4.50
2019-03-21T03:53:43.773Z,4.50
2019-03-21T03:56:11.722Z,4.50
2019-03-21T03:58:40.812Z,4.50
2019-03-21T04:01:08.692Z,4.50
2019-03-21T04:03:36.691Z,4.60
2019-03-21T04:06:05.186Z,4.60
2019-03-21T04:08:33.121Z,4.60
2019-03-21T04:11:01.192Z,4.60
2019-03-21T04:13:29.134Z,4.70
2019-03-21T04:15:57.027Z,4.70
2019-03-21T04:18:31.363Z,4.80
2019-03-21T04:21:00.597Z,4.80
2019-03-21T04:23:29.000Z,4.90
2019-03-21T04:26:03.733Z,5.00
2019-03-21T04:28:32.563Z,5.00
2019-03-21T04:31:00.969Z,5.00
2019-03-21T04:33:32.301Z,5.10
2019-03-21T04:36:00.737Z,5.20
2019-03-21T04:38:29.237Z,5.10
2019-03-21T04:40:57.309Z,5.10
2019-03-21T04:43:27.100Z,5.20
2019-03-21T04:46:03.313Z,5.10
2019-03-21T04:48:25.972Z,5.20
2019-03-21T04:50:54.924Z,5.20
2019-03-21T04:53:23.453Z,5.20
2019-03-21T04:55:51.949Z,5.30
2019-03-21T04:58:20.464Z,5.30
2019-03-21T05:00:48.982Z,5.30
2019-03-21T05:03:17.446Z,5.40
2019-03-21T05:05:46.085Z,5.30
2019-03-21T05:08:14.698Z,5.30
2019-03-21T05:10:43.131Z,5.40
2019-03-21T05:13:11.847Z,5.40
2019-03-21T05:15:40.546Z,5.40
2019-03-21T05:18:14.820Z,5.40
2019-03-21T05:20:43.234Z,5.50
2019-03-21T05:23:11.724Z,5.50
2019-03-21T05:25:40.416Z,5.50
2019-03-21T05:28:08.898Z,5.50
2019-03-21T05:30:50.074Z,5.50
2019-03-21T05:33:18.510Z,5.50
2019-03-21T05:35:47.247Z,5.40
2019-03-21T05:38:16.097Z,5.40
2019-03-21T05:40:45.856Z,5.40
2019-03-21T05:43:17.513Z,5.50
2019-03-21T05:45:48.763Z,5.50
2019-03-21T05:51:06.404Z,5.50
2019-03-21T05:53:41.541Z,5.60
2019-03-21T05:56:09.239Z,5.60
2019-03-21T05:58:37.028Z,5.70
2019-03-21T06:01:05.065Z,5.60
2019-03-21T06:03:45.288Z,5.70
2019-03-21T06:06:17.022Z,5.80
2019-03-21T06:08:44.982Z,5.80
2019-03-21T06:11:12.715Z,5.80
2019-03-21T06:13:40.604Z,5.80
2019-03-21T06:16:09.613Z,5.80
2019-03-21T06:19:01.804Z,5.90
2019-03-21T06:21:41.750Z,5.90
2019-03-21T06:24:48.152Z,5.90
2019-03-21T06:27:35.424Z,5.90
2019-03-21T06:30:04.286Z,6.00
2019-03-21T06:32:32.232Z,6.10
2019-03-21T06:35:00.329Z,6.20
2019-03-21T06:37:28.895Z,6.20
2019-03-21T06:39:57.174Z,6.20
2019-03-21T06:42:24.945Z,6.30
2019-03-21T06:44:52.872Z,6.40
2019-03-21T06:47:20.896Z,6.50
2019-03-21T06:49:48.905Z,6.50
2019-03-21T06:52:16.892Z,6.50
2019-03-21T06:54:44.876Z,6.50
2019-03-21T06:57:12.682Z,6.60
2019-03-21T06:59:40.558Z,6.60
2019-03-21T07:02:08.467Z,6.60
2019-03-21T07:04:36.451Z,6.70
2019-03-21T07:07:08.305Z,6.80
2019-03-21T07:09:34.012Z,6.70
2019-03-21T07:12:01.887Z,6.70
2019-03-21T07:14:29.813Z,6.70
2019-03-21T07:17:00.638Z,6.80
2019-03-21T07:19:27.440Z,6.80
2019-03-21T07:21:55.235Z,6.80
2019-03-21T07:24:23.238Z,6.80
2019-03-21T07:26:51.116Z,6.80
2019-03-21T07:29:19.104Z,6.90
2019-03-21T07:31:46.988Z,6.90
2019-03-21T07:34:14.827Z,6.90
2019-03-21T07:36:42.621Z,6.90
2019-03-21T07:39:10.492Z,7.00
2019-03-21T07:41:38.384Z,7.00
2019-03-21T07:44:06.303Z,7.00
2019-03-21T07:46:34.059Z,7.10
2019-03-21T07:49:01.745Z,7.20
2019-03-21T07:51:29.617Z,7.20
2019-03-21T07:53:57.503Z,7.30
2019-03-21T07:56:25.461Z,7.30
2019-03-21T07:58:53.307Z,7.30
2019-03-21T08:01:21.232Z,7.30
2019-03-21T08:03:49.036Z,7.30
2019-03-21T08:06:18.862Z,7.30
2019-03-21T08:08:46.814Z,7.40
2019-03-21T08:11:14.734Z,7.50
2019-03-21T08:13:42.605Z,7.50
2019-03-21T08:16:10.435Z,7.60
2019-03-21T08:18:38.113Z,7.70
2019-03-21T08:21:05.846Z,7.70
2019-03-21T08:23:33.632Z,7.80
2019-03-21T08:26:01.496Z,7.90
2019-03-21T08:28:29.372Z,8.00
2019-03-21T08:31:16.906Z,8.00
2019-03-21T08:33:45.437Z,8.10
2019-03-21T08:36:13.608Z,8.20
2019-03-21T08:38:41.584Z,8.30
2019-03-21T08:41:09.834Z,8.30
2019-03-21T08:43:37.707Z,8.30
2019-03-21T08:46:05.500Z,8.20
2019-03-21T08:48:33.367Z,8.10
2019-03-21T08:51:08.237Z,8.10
2019-03-21T08:53:30.802Z,8.10
2019-03-21T08:55:58.608Z,8.00
2019-03-21T08:58:26.551Z,7.90
2019-03-21T09:00:54.431Z,7.90
2019-03-21T09:03:22.412Z,7.80
2019-03-21T09:05:50.263Z,7.80
2019-03-21T09:08:18.239Z,7.80
2019-03-21T09:10:46.213Z,7.80
2019-03-21T09:13:14.131Z,7.80
2019-03-21T09:15:41.993Z,7.80
2019-03-21T09:18:09.964Z,7.80
2019-03-21T09:20:37.928Z,7.70
2019-03-21T09:23:05.821Z,7.80
2019-03-21T09:25:33.765Z,7.80
2019-03-21T09:28:03.169Z,7.80
2019-03-21T09:30:31.435Z,7.80
2019-03-21T09:32:59.205Z,7.80
2019-03-21T09:35:27.204Z,7.90
2019-03-21T09:37:55.163Z,7.90
2019-03-21T09:40:23.142Z,7.90
2019-03-21T09:42:50.994Z,7.90
2019-03-21T09:45:18.913Z,7.80
2019-03-21T09:47:46.772Z,7.80
2019-03-21T09:50:24.068Z,7.80
2019-03-21T09:52:51.816Z,7.70
2019-03-21T09:55:19.786Z,7.70
2019-03-21T09:57:47.633Z,7.80
2019-03-21T10:00:23.709Z,7.80
2019-03-21T10:02:51.587Z,7.80
2019-03-21T10:05:19.432Z,7.90
2019-03-21T10:07:47.345Z,7.90
2019-03-21T10:10:24.237Z,7.90
2019-03-21T10:12:52.283Z,8.00
2019-03-21T10:15:20.151Z,8.00
2019-03-21T10:17:48.124Z,7.90
2019-03-21T10:20:15.917Z,7.90
2019-03-21T10:22:43.794Z,7.90
2019-03-21T10:25:11.853Z,7.90
2019-03-21T10:27:39.880Z,7.90
2019-03-21T10:30:08.164Z,7.80
2019-03-21T10:32:36.024Z,7.80
2019-03-21T10:35:04.663Z,7.80
2019-03-21T10:37:32.512Z,7.80
2019-03-21T10:40:00.427Z,7.90
2019-03-21T10:42:28.283Z,7.90
2019-03-21T10:44:56.208Z,7.90
2019-03-21T10:47:24.072Z,7.90
2019-03-21T10:49:52.016Z,7.90
2019-03-21T10:52:20.183Z,8.00
2019-03-21T10:54:47.987Z,8.00
2019-03-21T10:57:15.733Z,8.00
2019-03-21T10:59:43.971Z,7.90
2019-03-21T11:02:11.797Z,8.00
2019-03-21T11:04:39.680Z,8.00
2019-03-21T11:07:06.153Z,8.10
2019-03-21T11:09:34.073Z,8.10
2019-03-21T11:12:01.945Z,8.10
2019-03-21T11:14:29.897Z,8.00
2019-03-21T11:16:57.692Z,8.00
2019-03-21T11:19:25.612Z,8.00
2019-03-21T11:21:53.400Z,7.90
2019-03-21T11:24:21.244Z,8.00
2019-03-21T11:26:49.118Z,7.90
2019-03-21T11:29:17.070Z,8.00
2019-03-21T11:31:44.859Z,8.10
2019-03-21T11:34:12.624Z,8.10
2019-03-21T11:36:40.498Z,8.10
2019-03-21T11:39:08.322Z,8.10
2019-03-21T11:41:36.207Z,8.10
2019-03-21T11:44:04.120Z,8.10
2019-03-21T11:46:31.981Z,8.10
2019-03-21T11:49:00.264Z,8.20
2019-03-21T11:51:28.131Z,8.10
2019-03-21T11:53:56.103Z,8.10
2019-03-21T11:56:23.880Z,8.00
2019-03-21T11:58:51.614Z,8.00
2019-03-21T12:01:19.476Z,8.00
2019-03-21T12:03:47.235Z,8.00
2019-03-21T12:06:15.133Z,8.00
2019-03-21T12:08:43.023Z,8.00
2019-03-21T12:11:10.819Z,8.00
2019-03-21T12:13:38.997Z,8.00
2019-03-21T12:16:06.900Z,8.00
2019-03-21T12:18:34.572Z,8.00
2019-03-21T12:21:02.611Z,7.90
2019-03-21T12:23:30.565Z,7.90
2019-03-21T12:25:58.451Z,7.90
2019-03-21T12:28:26.434Z,7.90
2019-03-21T12:30:54.283Z,7.90
2019-03-21T12:33:22.194Z,7.90
2019-03-21T12:35:50.066Z,8.00
2019-03-21T12:38:17.943Z,8.00
2019-03-21T12:40:45.818Z,8.00
2019-03-21T12:43:13.578Z,7.90
2019-03-21T12:45:41.474Z,7.90
2019-03-21T12:48:09.340Z,7.80
2019-03-21T12:50:37.245Z,7.80
2019-03-21T12:53:05.116Z,7.80
2019-03-21T12:55:32.973Z,7.80
2019-03-21T12:58:00.872Z,7.90
2019-03-21T13:00:37.261Z,8.00
2019-03-21T13:03:05.407Z,8.00
2019-03-21T13:05:33.228Z,8.10
2019-03-21T13:08:01.118Z,8.10
2019-03-21T13:10:29.025Z,8.10
2019-03-21T13:12:56.919Z,8.10
2019-03-21T13:15:29.743Z,8.20
2019-03-21T13:17:54.486Z,8.30
2019-03-21T13:20:22.321Z,8.40
2019-03-21T13:22:53.238Z,8.40
2019-03-21T13:25:19.956Z,8.50
2019-03-21T13:27:47.928Z,8.60
2019-03-21T13:30:16.027Z,8.70
2019-03-21T13:32:43.770Z,8.70
2019-03-21T13:35:12.079Z,8.80
2019-03-21T13:37:39.924Z,8.90
2019-03-21T13:40:07.807Z,8.80
2019-03-21T13:42:35.575Z,8.80
2019-03-21T13:45:03.675Z,8.80
2019-03-21T13:47:31.539Z,8.70
2019-03-21T13:49:59.370Z,8.70
2019-03-21T13:52:27.169Z,8.70
2019-03-21T13:54:55.064Z,8.60
2019-03-21T13:57:22.923Z,8.60
2019-03-21T13:59:50.791Z,8.60
2019-03-21T14:02:18.692Z,8.60
2019-03-21T14:04:46.687Z,8.50
2019-03-21T14:07:14.524Z,8.50
2019-03-21T14:09:42.379Z,8.50
2019-03-21T14:12:10.307Z,8.50
2019-03-21T14:14:38.156Z,8.50
2019-03-21T14:17:06.021Z,8.50
2019-03-21T14:19:33.895Z,8.50
2019-03-21T14:22:01.697Z,8.50
2019-03-21T14:24:29.463Z,8.40
2019-03-21T14:26:57.325Z,8.40
2019-03-21T14:29:25.203Z,8.40
2019-03-21T14:31:53.172Z,8.40
2019-03-21T14:34:21.029Z,8.30
2019-03-21T14:36:48.900Z,8.30
2019-03-21T14:39:16.744Z,8.20
2019-03-21T14:41:44.587Z,8.20
2019-03-21T14:44:12.334Z,8.20
2019-03-21T14:46:40.216Z,8.20
2019-03-21T14:49:07.988Z,8.20
2019-03-21T14:51:35.860Z,8.20
2019-03-21T14:54:03.833Z,8.20
2019-03-21T14:56:31.725Z,8.30
2019-03-21T14:58:59.980Z,8.30
2019-03-21T15:01:27.961Z,8.30
2019-03-21T15:03:55.724Z,8.30
2019-03-21T15:06:23.635Z,8.20
2019-03-21T15:08:51.488Z,8.30
2019-03-21T15:11:19.388Z,8.30
2019-03-21T15:13:47.394Z,8.30
2019-03-21T15:16:15.257Z,8.30
2019-03-21T15:18:43.005Z,8.30
2019-03-21T15:21:10.982Z,8.20
2019-03-21T15:23:40.898Z,8.20
2019-03-21T15:26:08.497Z,8.20
2019-03-21T15:28:36.461Z,8.10
2019-03-21T15:31:04.435Z,8.10
2019-03-21T15:33:32.319Z,8.10
2019-03-21T15:36:00.175Z,8.10
2019-03-21T15:38:28.004Z,8.10
2019-03-21T15:40:56.018Z,8.10
2019-03-21T15:43:23.952Z,8.10
2019-03-21T15:45:51.856Z,8.00
2019-03-21T15:48:20.969Z,8.00
2019-03-21T15:50:49.222Z,7.90
2019-03-21T15:53:17.082Z,7.90
2019-03-21T15:55:45.058Z,7.90
2019-03-21T15:58:12.904Z,7.90
2019-03-21T16:00:41.640Z,7.90
2019-03-21T16:03:09.947Z,7.90
2019-03-21T16:05:38.014Z,7.90
2019-03-21T16:08:08.688Z,8.00
2019-03-21T16:10:35.872Z,8.00
2019-03-21T16:13:04.435Z,8.00
2019-03-21T16:15:32.293Z,8.00
2019-03-21T16:18:00.201Z,8.00
2019-03-21T16:20:28.041Z,8.00
2019-03-21T16:22:55.984Z,8.00
2019-03-21T16:25:23.772Z,8.00
2019-03-21T16:27:51.628Z,8.00
2019-03-21T16:30:19.612Z,8.00
2019-03-21T16:32:47.368Z,8.00
2019-03-21T16:35:15.256Z,8.00
2019-03-21T16:37:43.092Z,8.00
2019-03-21T16:40:13.162Z,8.00
2019-03-21T16:42:40.747Z,8.00
2019-03-21T16:45:08.911Z,7.90
2019-03-21T16:47:36.669Z,7.90
2019-03-21T16:50:05.772Z,7.90
2019-03-21T16:52:33.551Z,7.90
2019-03-21T16:55:01.494Z,7.80
2019-03-21T16:57:29.371Z,7.80
2019-03-21T16:59:57.239Z,7.80
2019-03-21T17:02:25.124Z,7.80
2019-03-21T17:04:52.968Z,7.70
2019-03-21T17:07:20.759Z,7.70
2019-03-21T17:09:48.816Z,7.70
2019-03-21T17:12:16.791Z,7.70
2019-03-21T17:14:44.666Z,7.70
2019-03-21T17:17:12.566Z,7.60
2019-03-21T17:19:40.323Z,7.60
2019-03-21T17:22:08.067Z,7.60
2019-03-21T17:24:35.986Z,7.60
2019-03-21T17:27:03.937Z,7.60
2019-03-21T17:29:31.889Z,7.60
2019-03-21T17:31:59.770Z,7.60
2019-03-21T17:34:27.731Z,7.60
2019-03-21T17:36:55.480Z,7.60
2019-03-21T17:39:23.486Z,7.60
2019-03-21T17:41:51.436Z,7.60
2019-03-21T17:44:19.448Z,7.50
2019-03-21T17:46:47.399Z,7.50
2019-03-21T17:49:15.412Z,7.50
2019-03-21T17:51:43.187Z,7.50
2019-03-21T17:54:11.830Z,7.50
2019-03-21T17:56:39.803Z,7.50
2019-03-21T17:59:07.540Z,7.50
2019-03-21T18:01:35.720Z,7.50
2019-03-21T18:04:03.775Z,7.50
2019-03-21T18:06:31.653Z,7.50
2019-03-21T18:08:59.532Z,7.50
2019-03-21T18:11:27.449Z,7.50
2019-03-21T18:13:55.295Z,7.50
2019-03-21T18:16:23.062Z,7.50
2019-03-21T18:18:50.952Z,7.50
2019-03-21T18:21:18.723Z,7.50
2019-03-21T18:23:46.611Z,7.50
2019-03-21T18:26:16.496Z,7.40
2019-03-21T18:28:44.362Z,7.50
2019-03-21T18:31:12.225Z,7.50
2019-03-21T18:33:40.115Z,7.40
2019-03-21T18:36:08.066Z,7.50
2019-03-21T18:38:35.812Z,7.50
2019-03-21T18:41:03.990Z,7.50
2019-03-21T18:43:31.800Z,7.40
2019-03-21T18:45:59.683Z,7.40
2019-03-21T18:48:27.460Z,7.40
2019-03-21T18:50:55.353Z,7.50
2019-03-21T18:53:23.475Z,7.50
2019-03-21T18:55:51.365Z,7.50
2019-03-21T18:58:19.254Z,7.50
2019-03-21T19:00:47.206Z,7.50
2019-03-21T19:03:15.093Z,7.50
2019-03-21T19:05:43.049Z,7.50
2019-03-21T19:08:11.010Z,7.50
2019-03-21T19:10:38.840Z,7.50
2019-03-21T19:13:06.715Z,7.50
2019-03-21T19:15:34.471Z,7.50
2019-03-21T19:18:02.468Z,7.50
2019-03-21T19:20:30.412Z,7.60
2019-03-21T19:22:58.299Z,7.60
2019-03-21T19:25:26.041Z,7.60
2019-03-21T19:27:53.919Z,7.60
2019-03-21T19:30:22.311Z,7.70
2019-03-21T19:32:50.203Z,7.70
2019-03-21T19:35:18.047Z,7.70
2019-03-21T19:37:46.008Z,7.70
2019-03-21T19:40:14.299Z,7.70
2019-03-21T19:42:42.076Z,7.70
2019-03-21T19:45:10.419Z,7.70
2019-03-21T19:47:38.256Z,7.70
2019-03-21T19:50:08.116Z,7.70
2019-03-21T19:52:36.027Z,7.70
2019-03-21T19:55:04.747Z,7.70
2019-03-21T19:57:32.666Z,7.70
2019-03-21T20:00:00.434Z,7.70
2019-03-21T20:02:28.313Z,7.60
2019-03-21T20:04:56.270Z,7.60
2019-03-21T20:07:24.160Z,7.60
2019-03-21T20:09:52.218Z,7.60
2019-03-21T20:12:19.996Z,7.60
2019-03-21T20:14:47.885Z,7.50
2019-03-21T20:17:15.948Z,7.50
2019-03-21T20:19:43.716Z,7.40
2019-03-21T20:22:11.460Z,7.40
2019-03-21T20:24:39.429Z,7.40
2019-03-21T20:27:09.829Z,7.40
2019-03-21T20:29:36.991Z,7.40
2019-03-21T20:32:04.840Z,7.30
2019-03-21T20:34:32.704Z,7.30
2019-03-21T20:37:00.515Z,7.30
2019-03-21T20:39:28.331Z,7.30
2019-03-21T20:41:56.831Z,7.30
2019-03-21T20:44:24.791Z,7.30
2019-03-21T20:46:52.834Z,7.30
2019-03-21T20:49:20.703Z,7.30
2019-03-21T20:51:48.474Z,7.30
2019-03-21T20:54:16.286Z,7.30
2019-03-21T20:56:44.149Z,7.30
2019-03-21T20:59:11.952Z,7.30
2019-03-21T21:01:39.780Z,7.30
2019-03-21T21:04:07.556Z,7.30
2019-03-21T21:06:35.398Z,7.30
2019-03-21T21:09:06.076Z,7.30
2019-03-21T21:11:35.173Z,7.30
2019-03-21T21:14:03.230Z,7.40
2019-03-21T21:16:31.084Z,7.30
2019-03-21T21:18:58.968Z,7.40
2019-03-21T21:21:26.805Z,7.30
2019-03-21T21:23:54.591Z,7.30
2019-03-21T21:26:22.391Z,7.30
2019-03-21T21:28:50.323Z,7.30
2019-03-21T21:31:18.119Z,7.40
2019-03-21T21:33:45.862Z,7.40
2019-03-21T21:36:21.813Z,7.40
2019-03-21T21:38:43.272Z,7.40
2019-03-21T21:41:11.029Z,7.40
2019-03-21T21:43:38.982Z,7.40
2019-03-21T21:46:07.071Z,7.40
2019-03-21T21:48:34.861Z,7.40
2019-03-21T21:51:02.939Z,7.40
2019-03-21T21:53:30.918Z,7.40
2019-03-21T21:55:58.657Z,7.40
2019-03-21T21:58:26.547Z,7.40
2019-03-21T22:00:54.340Z,7.40
2019-03-21T22:03:22.127Z,7.40
2019-03-21T22:05:50.068Z,7.40
2019-03-21T22:08:17.856Z,7.40
2019-03-21T22:10:45.784Z,7.40
2019-03-21T22:13:13.572Z,7.40
2019-03-21T22:15:41.447Z,7.50
2019-03-21T22:18:09.318Z,7.50
2019-03-21T22:20:36.981Z,7.50
2019-03-21T22:23:08.689Z,7.50
2019-03-21T22:25:39.888Z,7.50
2019-03-21T22:28:10.101Z,7.50
2019-03-21T22:30:37.324Z,7.60
2019-03-21T22:33:05.179Z,7.50
2019-03-21T22:35:33.065Z,7.50
2019-03-21T22:38:00.952Z,7.50
2019-03-21T22:40:28.939Z,7.50
2019-03-21T22:42:56.733Z,7.50
2019-03-21T22:45:24.605Z,7.40
2019-03-21T22:47:52.477Z,7.20
2019-03-21T22:50:20.427Z,7.10
2019-03-21T22:52:48.315Z,7.00
2019-03-21T22:55:16.268Z,6.90
2019-03-21T22:57:44.101Z,6.80
2019-03-21T23:00:14.695Z,6.80
2019-03-21T23:02:43.532Z,6.80
2019-03-21T23:05:12.215Z,6.70
2019-03-21T23:07:40.113Z,6.60
2019-03-21T23:10:08.127Z,6.50
2019-03-21T23:12:35.981Z,6.50
2019-03-21T23:15:04.766Z,6.50
2019-03-21T23:17:32.667Z,6.50
2019-03-21T23:20:00.446Z,6.40
2019-03-21T23:22:28.207Z,6.40
2019-03-21T23:24:55.939Z,6.30
2019-03-21T23:27:23.717Z,6.30
2019-03-21T23:29:51.495Z,6.30
2019-03-21T23:32:20.570Z,6.30
2019-03-21T23:34:48.356Z,6.30
2019-03-21T23:37:16.230Z,6.30
2019-03-21T23:39:43.964Z,6.30
2019-03-21T23:42:11.835Z,6.20
2019-03-21T23:44:39.605Z,6.20
2019-03-21T23:47:07.344Z,6.10
2019-03-21T23:49:35.228Z,6.10
2019-03-21T23:52:03.083Z,6.00
2019-03-21T23:54:31.121Z,6.00
2019-03-21T23:57:04.535Z,5.90
2019-03-21T23:59:28.745Z,5.90
